Time;durP1;ratioP1;P1;durP2;ratioP2;P2;SDS_P1;SDS_P2;PMS_P1;PMS_P2;Temp;Humidity;BMP_temperature;BMP_pressure;BME280_temperature;BME280_humidity;BME280_pressure;Samples;Min_cycle;Max_cycle;Signal;HPM_P1;HPM_P2
2021/04/02 00:00:45;;;;;;;25.67;7.03;;;;;;;9.10;63.60;101131.22;5083038;28;20474;-63
2021/04/02 00:03:12;;;;;;;9.70;7.00;;;;;;;9.06;63.78;101132.38;5083511;28;20467;-63
2021/04/02 00:05:39;;;;;;;9.47;6.93;;;;;;;8.96;63.71;101132.19;5122968;27;20500;-62
2021/04/02 00:08:05;;;;;;;10.17;6.10;;;;;;;8.81;64.17;101120.78;5107737;28;20463;-62
2021/04/02 00:10:40;;;;;;;14.00;7.17;;;;;;;8.74;64.76;101114.19;5102713;28;20909;-62
2021/04/02 00:13:07;;;;;;;12.00;7.13;;;;;;;9.02;63.91;101118.41;5104087;28;20447;-62
2021/04/02 00:15:33;;;;;;;17.00;6.87;;;;;;;8.99;63.93;101116.00;5102976;28;20549;-62
2021/04/02 00:18:00;;;;;;;10.57;6.33;;;;;;;8.92;64.29;101114.69;5116062;28;20446;-62
2021/04/02 00:20:26;;;;;;;12.03;6.93;;;;;;;9.17;63.54;101112.97;5123072;27;20470;-63
2021/04/02 00:22:52;;;;;;;12.30;6.87;;;;;;;8.84;64.42;101112.59;5112474;28;20501;-62
2021/04/02 00:25:20;;;;;;;12.17;7.37;;;;;;;8.90;64.59;101110.44;5103796;28;20461;-62
2021/04/02 00:27:46;;;;;;;11.40;6.87;;;;;;;8.96;64.35;101100.19;5103393;28;20487;-63
2021/04/02 00:30:15;;;;;;;11.10;6.13;;;;;;;8.80;64.88;101115.56;5104993;28;20442;-62
2021/04/02 00:32:41;;;;;;;12.17;7.50;;;;;;;9.16;63.68;101109.44;5123435;28;20450;-62
2021/04/02 00:35:10;;;;;;;14.03;7.63;;;;;;;9.10;64.14;101111.72;5121355;28;20468;-63
2021/04/02 00:37:36;;;;;;;12.43;7.33;;;;;;;8.99;64.40;101102.66;5083104;28;20424;-63
2021/04/02 00:40:06;;;;;;;11.90;6.10;;;;;;;8.93;64.37;101107.56;5090016;28;20461;-63
2021/04/02 00:42:32;;;;;;;14.50;7.10;;;;;;;8.99;64.26;101101.78;5110800;28;20506;-62
2021/04/02 00:44:59;;;;;;;13.13;6.97;;;;;;;9.00;64.24;101099.00;5105422;28;20443;-62
2021/04/02 00:47:25;;;;;;;9.67;6.97;;;;;;;8.89;64.67;101095.38;5122378;27;20482;-62
2021/04/02 00:49:51;;;;;;;13.40;7.17;;;;;;;8.79;64.73;101090.72;5122088;28;20504;-62
2021/04/02 00:52:18;;;;;;;9.33;6.50;;;;;;;8.78;64.95;101091.66;5122150;28;20494;-61
2021/04/02 00:54:44;;;;;;;12.23;6.90;;;;;;;8.64;65.28;101095.31;5121004;28;20947;-62
2021/04/02 00:57:10;;;;;;;9.70;6.17;;;;;;;8.86;64.74;101097.31;5122273;28;20546;-63
2021/04/02 00:59:37;;;;;;;17.33;7.30;;;;;;;8.88;64.75;101101.72;5111093;28;20960;-63
2021/04/02 01:02:03;;;;;;;22.43;7.97;;;;;;;8.86;64.81;101097.31;5101928;28;20479;-62
2021/04/02 01:04:29;;;;;;;13.77;7.20;;;;;;;9.00;64.44;101092.84;5112177;28;20469;-62
2021/04/02 01:06:57;;;;;;;11.40;6.90;;;;;;;8.78;65.08;101094.34;5120093;28;20507;-63
2021/04/02 01:09:24;;;;;;;13.50;6.50;;;;;;;8.57;65.81;101086.03;5122410;28;20434;-63
2021/04/02 01:11:50;;;;;;;13.60;7.47;;;;;;;8.73;65.59;101091.16;5116198;27;20486;-63
2021/04/02 01:14:16;;;;;;;11.47;7.43;;;;;;;8.65;65.79;101093.50;5102126;28;20499;-62
2021/04/02 01:16:44;;;;;;;12.80;7.60;;;;;;;8.62;65.62;101088.41;5104779;28;21105;-63
2021/04/02 01:19:14;;;;;;;10.67;5.90;;;;;;;8.64;65.60;101099.78;5122501;28;20449;-63
2021/04/02 01:21:45;;;;;;;13.73;6.67;;;;;;;8.28;66.68;101096.88;5120371;28;20474;-62
2021/04/02 01:24:33;;;;;;;11.30;6.40;;;;;;;8.41;66.32;101099.53;5122080;28;20473;-62
2021/04/02 01:27:13;;;;;;;10.10;6.43;;;;;;;8.47;66.37;101092.97;5121188;28;20489;-62
2021/04/02 01:29:44;;;;;;;17.43;8.33;;;;;;;8.59;65.65;101096.59;5121959;28;20882;-63
2021/04/02 01:32:12;;;;;;;11.30;6.40;;;;;;;8.25;66.62;101098.91;5102161;28;20483;-63
2021/04/02 01:34:42;;;;;;;14.90;7.07;;;;;;;8.27;66.86;101100.50;5103719;28;20439;-63
2021/04/02 01:37:12;;;;;;;17.77;7.63;;;;;;;8.28;66.67;101098.66;5102762;28;20467;-63
2021/04/02 01:39:41;;;;;;;13.47;8.40;;;;;;;8.16;66.92;101104.84;5102652;28;20540;-62
2021/04/02 01:42:10;;;;;;;26.03;7.60;;;;;;;7.70;68.44;101093.66;5120060;27;20496;-63
2021/04/02 01:44:38;;;;;;;14.40;7.83;;;;;;;8.12;67.24;101093.53;5121981;28;20442;-63
2021/04/02 01:47:06;;;;;;;13.83;8.03;;;;;;;8.11;66.98;101094.50;5101341;28;20516;-62
2021/04/02 01:49:33;;;;;;;15.43;8.00;;;;;;;8.24;66.80;101100.69;5114278;28;20438;-63
2021/04/02 01:51:59;;;;;;;18.17;9.20;;;;;;;8.34;66.50;101102.75;5121701;28;20473;-63
2021/04/02 01:54:26;;;;;;;12.53;7.50;;;;;;;7.91;67.77;101106.50;5120145;28;20454;-63
2021/04/02 01:56:53;;;;;;;13.90;9.07;;;;;;;7.91;67.93;101101.16;5121049;28;20470;-62
2021/04/02 01:59:21;;;;;;;16.23;9.37;;;;;;;8.05;67.68;101097.59;5112135;28;20453;-63
2021/04/02 02:01:49;;;;;;;15.40;8.83;;;;;;;8.40;66.56;101103.19;5101262;28;20482;-63
2021/04/02 02:04:18;;;;;;;16.90;10.00;;;;;;;8.11;67.32;101110.50;5113203;28;20450;-62
2021/04/02 02:06:44;;;;;;;13.27;8.77;;;;;;;8.08;67.33;101108.03;5121338;27;20485;-63
2021/04/02 02:09:12;;;;;;;12.03;8.10;;;;;;;8.26;66.84;101101.47;5119810;28;20465;-63
2021/04/02 02:11:40;;;;;;;14.13;8.67;;;;;;;8.29;66.83;101101.22;5120827;28;20853;-63
2021/04/02 02:14:08;;;;;;;18.30;9.20;;;;;;;8.25;66.75;101105.06;5111116;28;20450;-63
2021/04/02 02:16:35;;;;;;;14.67;7.70;;;;;;;8.12;67.29;101096.19;5103210;28;20994;-63
2021/04/02 02:19:03;;;;;;;20.77;8.20;;;;;;;7.70;68.27;101100.78;5122151;28;20469;-62
2021/04/02 02:21:31;;;;;;;17.63;9.53;;;;;;;7.92;67.63;101100.22;5120283;27;20476;-62
2021/04/02 02:23:57;;;;;;;23.73;10.00;;;;;;;7.88;67.78;101112.91;5121725;28;20457;-63
2021/04/02 02:26:23;;;;;;;17.33;9.77;;;;;;;7.99;67.51;101111.31;5120902;27;20511;-63
2021/04/02 02:28:49;;;;;;;22.13;10.67;;;;;;;7.98;67.74;101104.28;5124502;28;20465;-63
2021/04/02 02:31:16;;;;;;;15.67;10.20;;;;;;;7.68;68.39;101103.53;5123346;28;20534;-62
2021/04/02 02:33:42;;;;;;;13.83;8.93;;;;;;;7.98;67.72;101104.28;5125752;28;20503;-62
2021/04/02 02:36:09;;;;;;;19.33;10.23;;;;;;;8.01;67.33;101104.06;5125088;28;20465;-62
2021/04/02 02:38:36;;;;;;;14.23;8.70;;;;;;;8.21;66.75;101105.38;5105026;28;20991;-63
2021/04/02 02:41:03;;;;;;;20.13;9.10;;;;;;;8.08;67.12;101108.88;5104251;28;20831;-63
2021/04/02 02:43:30;;;;;;;17.47;9.37;;;;;;;8.44;65.96;101111.84;5106238;28;20451;-63
2021/04/02 02:45:56;;;;;;;16.80;9.43;;;;;;;8.38;66.13;101109.56;5115687;28;20586;-63
2021/04/02 02:48:22;;;;;;;12.83;9.30;;;;;;;8.44;65.69;101104.69;5125407;28;20433;-63
2021/04/02 02:50:53;;;;;;;19.93;9.97;;;;;;;8.21;66.42;101113.38;5124256;28;20477;-62
2021/04/02 02:53:21;;;;;;;13.97;8.97;;;;;;;8.21;66.46;101121.38;5125623;28;20484;-62
2021/04/02 02:55:50;;;;;;;14.73;8.60;;;;;;;7.98;67.01;101114.94;5123553;27;20535;-63
2021/04/02 02:58:16;;;;;;;21.90;10.30;;;;;;;7.86;67.47;101106.81;5125152;28;20482;-63
2021/04/02 03:00:44;;;;;;;17.77;9.63;;;;;;;7.72;68.11;101120.16;5108433;28;20781;-63
2021/04/02 03:03:14;;;;;;;17.93;9.87;;;;;;;7.79;67.89;101117.97;5084096;28;20448;-62
2021/04/02 03:05:41;;;;;;;12.10;9.30;;;;;;;7.49;68.81;101114.53;5106352;27;20473;-63
2021/04/02 03:08:08;;;;;;;24.97;9.87;;;;;;;7.53;69.08;101109.88;5124430;28;20454;-62
2021/04/02 03:10:36;;;;;;;15.03;10.77;;;;;;;7.50;68.87;101118.91;5114351;28;20481;-62
2021/04/02 03:13:04;;;;;;;12.73;9.10;;;;;;;7.66;68.51;101115.25;5105752;28;20479;-63
2021/04/02 03:15:32;;;;;;;18.47;10.40;;;;;;;7.60;68.31;101115.66;5123184;28;20465;-62
2021/04/02 03:18:02;;;;;;;16.27;11.10;;;;;;;7.67;68.59;101125.81;5124218;28;20414;-63
2021/04/02 03:20:28;;;;;;;17.67;10.30;;;;;;;7.54;68.93;101117.75;5104207;28;20547;-63
2021/04/02 03:22:55;;;;;;;19.37;10.20;;;;;;;7.43;69.35;101120.28;5104919;28;20442;-62
2021/04/02 03:25:24;;;;;;;17.97;10.57;;;;;;;7.61;68.49;101120.03;5123471;28;20978;-62
2021/04/02 03:27:51;;;;;;;14.63;10.90;;;;;;;7.72;68.00;101117.50;5123315;28;20486;-63
2021/04/02 03:30:19;;;;;;;13.40;10.10;;;;;;;7.73;67.74;101119.22;5124234;28;20656;-61
2021/04/02 03:32:48;;;;;;;16.30;10.53;;;;;;;7.61;68.26;101122.69;5123432;28;20445;-62
2021/04/02 03:35:14;;;;;;;16.63;10.83;;;;;;;7.42;68.88;101118.56;5103324;28;20476;-62
2021/04/02 03:37:42;;;;;;;16.33;11.30;;;;;;;7.13;69.95;101125.72;5103642;28;20443;-63
2021/04/02 03:40:13;;;;;;;16.03;10.83;;;;;;;7.42;69.07;101113.22;5121745;27;20461;-62
2021/04/02 03:42:40;;;;;;;14.90;11.60;;;;;;;7.39;69.46;101120.56;5122383;28;20458;-62
2021/04/02 03:45:09;;;;;;;15.70;10.23;;;;;;;7.44;68.93;101123.78;5123425;28;21120;-62
2021/04/02 03:47:36;;;;;;;19.03;11.63;;;;;;;7.34;69.22;101127.03;5112284;28;20481;-62
2021/04/02 03:50:04;;;;;;;16.50;11.47;;;;;;;7.42;69.29;101134.50;5104248;28;21060;-62
2021/04/02 03:52:33;;;;;;;18.00;11.60;;;;;;;7.58;68.62;101122.88;5103922;28;20470;-62
2021/04/02 03:54:59;;;;;;;16.73;11.20;;;;;;;7.58;68.83;101130.88;5103788;28;20463;-62
2021/04/02 03:57:27;;;;;;;14.50;11.00;;;;;;;7.61;68.57;101134.19;5121568;28;20478;-62
2021/04/02 03:59:53;;;;;;;18.53;12.20;;;;;;;7.23;69.91;101134.00;5124272;28;20474;-63
2021/04/02 04:02:20;;;;;;;18.33;11.30;;;;;;;7.64;68.84;101127.81;5105518;28;20475;-63
2021/04/02 04:04:47;;;;;;;23.63;12.50;;;;;;;7.75;68.53;101129.78;5106436;28;20462;-62
2021/04/02 04:07:15;;;;;;;22.50;13.27;;;;;;;7.67;68.38;101133.78;5103396;28;20517;-62
2021/04/02 04:09:42;;;;;;;17.90;12.17;;;;;;;7.90;67.72;101134.09;5102790;28;20442;-62
2021/04/02 04:12:10;;;;;;;21.93;13.63;;;;;;;7.72;67.97;101136.13;5102761;28;20475;-63
2021/04/02 04:14:37;;;;;;;17.03;11.10;;;;;;;7.80;68.00;101138.31;5099703;28;20444;-62
2021/04/02 04:17:04;;;;;;;22.00;13.03;;;;;;;7.94;67.74;101140.06;5083217;28;20484;-62
2021/04/02 04:19:32;;;;;;;20.70;12.20;;;;;;;8.02;67.41;101132.41;5085206;28;20437;-62
2021/04/02 04:21:59;;;;;;;19.03;11.47;;;;;;;7.89;67.52;101146.53;5103224;28;20498;-63
2021/04/02 04:24:27;;;;;;;17.70;11.20;;;;;;;7.75;67.79;101143.94;5100569;28;20455;-62
2021/04/02 04:26:55;;;;;;;17.03;11.00;;;;;;;7.81;67.59;101145.31;5102349;28;20490;-63
2021/04/02 04:29:24;;;;;;;16.67;10.93;;;;;;;8.03;67.02;101150.09;5096536;28;20460;-63
2021/04/02 04:31:51;;;;;;;19.33;11.03;;;;;;;8.02;66.91;101138.59;5082513;28;20525;-63
2021/04/02 04:34:18;;;;;;;15.27;12.50;;;;;;;8.47;65.81;101147.13;5082733;28;20448;-63
2021/04/02 04:36:45;;;;;;;19.43;12.13;;;;;;;8.51;65.33;101149.59;5082073;28;20487;-62
2021/04/02 04:39:12;;;;;;;13.73;12.00;;;;;;;8.58;65.09;101140.22;5083969;28;20451;-63
2021/04/02 04:41:40;;;;;;;20.20;12.03;;;;;;;8.27;65.77;101137.78;5081940;28;20499;-62
2021/04/02 04:44:07;;;;;;;21.40;12.33;;;;;;;8.12;66.42;101133.50;5098553;28;20653;-63
2021/04/02 04:46:34;;;;;;;17.17;12.57;;;;;;;8.18;66.35;101148.22;5101991;28;20479;-62
2021/04/02 04:49:00;;;;;;;17.00;11.60;;;;;;;7.75;67.47;101146.59;5087689;28;20447;-62
2021/04/02 04:51:29;;;;;;;18.27;13.50;;;;;;;7.61;68.28;101149.31;5081450;28;20476;-63
2021/04/02 04:53:57;;;;;;;19.50;12.50;;;;;;;7.50;68.65;101147.34;5099684;28;20500;-63
2021/04/02 04:56:27;;;;;;;18.73;12.57;;;;;;;7.48;68.72;101150.09;5102148;28;20487;-62
2021/04/02 04:58:56;;;;;;;21.20;12.80;;;;;;;7.68;68.03;101143.47;5084638;28;20510;-63
2021/04/02 05:01:23;;;;;;;19.67;12.63;;;;;;;7.35;69.29;101151.81;5081665;28;20471;-62
2021/04/02 05:03:49;;;;;;;17.67;13.77;;;;;;;7.35;69.48;101139.38;5083067;28;20830;-62
2021/04/02 05:06:16;;;;;;;24.83;13.20;;;;;;;7.39;69.33;101145.34;5094907;28;20479;-62
2021/04/02 05:08:43;;;;;;;18.77;12.30;;;;;;;7.30;69.67;101146.78;5101890;28;20447;-62
2021/04/02 05:11:12;;;;;;;19.40;14.27;;;;;;;7.32;69.49;101150.19;5114347;28;20478;-63
2021/04/02 05:13:40;;;;;;;25.10;13.20;;;;;;;7.46;69.23;101144.00;5122842;28;20446;-62
2021/04/02 05:16:06;;;;;;;17.20;12.90;;;;;;;7.32;69.83;101152.00;5113562;28;20475;-62
2021/04/02 05:18:33;;;;;;;21.70;13.67;;;;;;;7.41;69.40;101150.56;5102259;28;20447;-63
2021/04/02 05:20:59;;;;;;;26.40;15.07;;;;;;;7.54;68.94;101141.72;5102371;28;21030;-63
2021/04/02 05:23:26;;;;;;;18.60;13.40;;;;;;;7.67;68.51;101147.09;5115621;28;20454;-62
2021/04/02 05:25:52;;;;;;;19.90;14.13;;;;;;;7.45;69.22;101152.94;5112528;28;20470;-63
2021/04/02 05:28:18;;;;;;;25.30;14.43;;;;;;;7.62;68.85;101151.88;5101875;28;20481;-63
2021/04/02 05:30:46;;;;;;;21.10;13.93;;;;;;;7.84;68.06;101151.31;5108579;28;20888;-62
2021/04/02 05:33:13;;;;;;;23.17;15.03;;;;;;;7.93;67.89;101149.84;5122185;28;20453;-62
2021/04/02 05:35:40;;;;;;;23.00;14.67;;;;;;;7.70;68.67;101154.03;5119980;28;20478;-62
2021/04/02 05:38:06;;;;;;;18.00;14.57;;;;;;;7.75;68.31;101157.25;5122322;28;21100;-62
2021/04/02 05:40:32;;;;;;;21.73;14.13;;;;;;;7.42;69.23;101157.63;5116987;28;20470;-63
2021/04/02 05:43:09;;;;;;;26.70;16.67;;;;;;;7.34;69.86;101174.03;5103443;28;21029;-62
2021/04/02 05:45:36;;;;;;;20.00;15.40;;;;;;;7.66;68.63;101163.16;5100869;28;20466;-62
2021/04/02 05:48:05;;;;;;;17.73;13.53;;;;;;;7.76;68.20;101156.28;5102128;28;20483;-63
2021/04/02 05:50:33;;;;;;;23.03;13.73;;;;;;;7.80;68.04;101163.13;5100769;28;20990;-62
2021/04/02 05:53:04;;;;;;;23.20;14.07;;;;;;;7.82;67.92;101158.53;5102976;28;20450;-63
2021/04/02 05:55:34;;;;;;;21.40;13.73;;;;;;;7.63;68.60;101161.53;5100881;28;20459;-62
2021/04/02 05:58:01;;;;;;;25.47;14.33;;;;;;;8.05;67.53;101161.50;5102924;28;20966;-62
2021/04/02 06:00:28;;;;;;;21.50;14.47;;;;;;;8.08;67.35;101163.97;5101507;27;20513;-62
2021/04/02 06:02:56;;;;;;;20.10;12.93;;;;;;;8.24;66.62;101166.44;5101495;28;20744;-63
2021/04/02 06:05:23;;;;;;;21.40;13.97;;;;;;;8.35;66.00;101169.25;5100288;28;20483;-62
2021/04/02 06:07:51;;;;;;;21.63;13.40;;;;;;;8.11;66.44;101167.28;5104328;28;20503;-62
2021/04/02 06:10:17;;;;;;;21.90;15.23;;;;;;;7.98;66.59;101168.19;5101005;28;20443;-62
2021/04/02 06:12:43;;;;;;;18.20;12.90;;;;;;;8.02;66.53;101167.00;5101537;28;20451;-62
2021/04/02 06:15:10;;;;;;;23.67;14.20;;;;;;;8.06;66.50;101171.19;5100585;28;20454;-63
2021/04/02 06:17:58;;;;;;;18.47;13.40;;;;;;;8.00;66.99;101166.28;5111260;28;20437;-62
2021/04/02 06:20:26;;;;;;;23.10;14.63;;;;;;;7.74;67.69;101168.81;5113016;28;20458;-63
2021/04/02 06:23:02;;;;;;;18.10;12.80;;;;;;;8.07;66.79;101162.25;5109056;28;20449;-63
2021/04/02 06:25:28;;;;;;;18.73;13.77;;;;;;;7.90;67.42;101160.72;5120671;27;20847;-62
2021/04/02 06:27:54;;;;;;;19.97;13.33;;;;;;;7.70;67.60;101159.34;5117039;28;20485;-63
2021/04/02 06:30:23;;;;;;;22.40;14.23;;;;;;;8.21;66.58;101159.53;5101038;28;20451;-63
2021/04/02 06:32:51;;;;;;;18.50;13.77;;;;;;;8.13;65.88;101164.50;5101615;28;20446;-62
2021/04/02 06:35:18;;;;;;;18.80;13.37;;;;;;;8.05;66.16;101159.69;5120951;27;20462;-63
2021/04/02 06:37:45;;;;;;;21.60;13.97;;;;;;;7.94;66.70;101169.34;5120910;28;20454;-62
2021/04/02 06:40:15;;;;;;;19.00;13.47;;;;;;;8.17;65.71;101159.84;5117939;28;20460;-63
2021/04/02 06:42:44;;;;;;;24.07;15.13;;;;;;;7.71;67.42;101161.06;5099242;28;21047;-62
2021/04/02 06:45:12;;;;;;;20.07;13.40;;;;;;;7.65;67.85;101167.63;5117999;27;20454;-63
2021/04/02 06:47:39;;;;;;;23.80;15.83;;;;;;;7.79;67.48;101172.03;5116764;28;20474;-63
2021/04/02 06:50:20;;;;;;;20.00;13.63;;;;;;;7.89;67.27;101174.97;5118403;27;20423;-62
2021/04/02 06:52:49;;;;;;;30.97;15.00;;;;;;;7.69;68.33;101169.16;5107004;28;20447;-61
2021/04/02 06:55:16;;;;;;;17.77;13.60;;;;;;;7.76;68.02;101179.38;5097846;28;20454;-62
2021/04/02 06:57:45;;;;;;;23.30;15.87;;;;;;;7.90;67.47;101180.19;5106659;28;20464;-62
2021/04/02 07:00:14;;;;;;;22.13;14.30;;;;;;;7.88;67.64;101184.78;5118224;27;20476;-62
2021/04/02 07:02:42;;;;;;;22.60;13.70;;;;;;;8.04;66.92;101184.63;5105998;28;20447;-62
2021/04/02 07:05:09;;;;;;;20.67;15.10;;;;;;;8.10;67.09;101183.34;5101953;28;20489;-63
2021/04/02 07:07:37;;;;;;;27.67;14.93;;;;;;;7.95;67.41;101179.03;5119110;28;20477;-62
2021/04/02 07:10:06;;;;;;;24.40;14.10;;;;;;;8.05;66.77;101186.31;5116717;28;20451;-62
2021/04/02 07:12:33;;;;;;;23.87;13.13;;;;;;;8.08;66.74;101177.28;5118323;28;20470;-62
2021/04/02 07:14:59;;;;;;;22.97;13.80;;;;;;;8.08;66.33;101178.13;5120395;28;20633;-62
2021/04/02 07:17:26;;;;;;;21.23;12.23;;;;;;;8.13;66.48;101172.50;5103287;28;20561;-62
2021/04/02 07:19:52;;;;;;;20.57;13.40;;;;;;;8.35;65.43;101187.91;5102916;28;20439;-63
2021/04/02 07:22:19;;;;;;;20.70;12.20;;;;;;;8.33;65.43;101184.47;5092040;28;20509;-63
2021/04/02 07:24:45;;;;;;;18.80;12.23;;;;;;;8.17;66.01;101192.63;5101765;28;20463;-63
2021/04/02 07:27:12;;;;;;;17.60;10.33;;;;;;;7.85;66.73;101184.97;5100806;28;20489;-62
2021/04/02 07:29:39;;;;;;;14.70;10.17;;;;;;;7.80;66.55;101186.22;5102670;28;20435;-63
2021/04/02 07:32:06;;;;;;;18.17;10.20;;;;;;;7.85;66.41;101192.13;5103001;28;20483;-63
2021/04/02 07:34:33;;;;;;;18.00;9.50;;;;;;;7.81;66.82;101190.59;5101434;28;20462;-62
2021/04/02 07:36:59;;;;;;;19.23;9.80;;;;;;;7.98;65.80;101189.50;5115315;28;20478;-63
2021/04/02 07:39:30;;;;;;;12.93;8.10;;;;;;;8.05;65.62;101180.13;5113792;28;20446;-63
2021/04/02 07:41:57;;;;;;;20.33;9.80;;;;;;;7.81;66.29;101172.81;5104505;28;20485;-62
2021/04/02 07:44:24;;;;;;;12.23;8.83;;;;;;;8.00;65.69;101175.13;5101285;28;20477;-62
2021/04/02 07:47:07;;;;;;;11.17;8.60;;;;;;;8.34;65.72;101174.69;5102487;28;20706;-63
2021/04/02 07:49:34;;;;;;;15.27;9.20;;;;;;;8.29;64.86;101175.84;5099953;28;20471;-63
2021/04/02 07:52:00;;;;;;;11.70;7.37;;;;;;;8.18;65.02;101191.69;5116878;28;20474;-63
2021/04/02 07:54:31;;;;;;;12.83;8.47;;;;;;;8.37;64.33;101186.00;5123918;28;20484;-63
2021/04/02 07:56:57;;;;;;;10.50;7.40;;;;;;;8.42;64.32;101186.56;5122824;27;20499;-62
2021/04/02 07:59:38;;;;;;;18.10;8.00;;;;;;;8.60;63.77;101191.59;5119132;28;20435;-63
2021/04/02 08:02:06;;;;;;;16.70;7.57;;;;;;;9.20;62.28;101190.97;5102952;28;20490;-63
2021/04/02 08:04:37;;;;;;;11.30;7.30;;;;;;;9.36;61.40;101195.22;5104892;28;20442;-63
2021/04/02 08:07:04;;;;;;;9.00;6.43;;;;;;;9.43;60.64;101194.66;5116975;28;20485;-62
2021/04/02 08:09:31;;;;;;;16.90;7.37;;;;;;;9.40;60.88;101194.03;5123191;28;20442;-63
2021/04/02 08:11:58;;;;;;;11.23;6.40;;;;;;;9.46;60.32;101190.94;5122869;28;20477;-63
2021/04/02 08:14:34;;;;;;;8.47;6.27;;;;;;;8.97;61.27;101194.38;5111819;28;20526;-64
2021/04/02 08:17:01;;;;;;;15.20;5.87;;;;;;;9.39;59.82;101189.63;5082388;28;20505;-64
2021/04/02 08:19:29;;;;;;;9.63;6.20;;;;;;;9.80;59.20;101196.47;5116869;28;20462;-64
2021/04/02 08:21:58;;;;;;;9.63;5.30;;;;;;;9.79;58.36;101192.09;5104513;28;21000;-63
2021/04/02 08:24:26;;;;;;;10.47;5.33;;;;;;;9.57;58.39;101198.16;5091646;28;20452;-63
2021/04/02 08:26:53;;;;;;;7.40;5.00;;;;;;;9.92;57.96;101190.22;5089524;28;20478;-63
2021/04/02 08:29:22;;;;;;;7.03;5.50;;;;;;;10.14;57.77;101191.31;5102205;28;20439;-63
2021/04/02 08:31:50;;;;;;;6.50;5.40;;;;;;;9.81;58.01;101192.84;5116052;28;20486;-63
2021/04/02 08:34:19;;;;;;;9.60;5.20;;;;;;;9.80;58.13;101200.00;5102213;28;20450;-63
2021/04/02 08:36:47;;;;;;;8.60;5.20;;;;;;;9.59;58.95;101209.59;5108752;27;20487;-63
2021/04/02 08:39:14;;;;;;;13.70;5.83;;;;;;;9.71;58.26;101197.16;5084139;28;20443;-62
2021/04/02 08:41:41;;;;;;;6.97;4.60;;;;;;;9.29;59.18;101205.47;5100328;28;20535;-64
2021/04/02 08:44:07;;;;;;;7.07;5.00;;;;;;;9.32;59.09;101205.25;5111448;28;20723;-63
2021/04/02 08:46:39;;;;;;;11.43;4.87;;;;;;;8.96;60.04;101214.03;5112267;28;20488;-63
2021/04/02 08:49:06;;;;;;;9.20;4.67;;;;;;;8.99;59.90;101214.69;5119315;28;20450;-65
2021/04/02 08:51:33;;;;;;;11.50;5.30;;;;;;;9.10;59.46;101205.91;5110819;28;20482;-64
2021/04/02 08:54:00;;;;;;;7.97;4.53;;;;;;;9.31;58.69;101206.22;5120219;28;20471;-64
2021/04/02 08:56:28;;;;;;;10.53;5.10;;;;;;;9.14;57.90;101195.88;5099922;28;20484;-66
2021/04/02 08:58:54;;;;;;;7.77;3.90;;;;;;;8.90;58.30;101206.44;5101784;28;20457;-66
2021/04/02 09:01:21;;;;;;;8.13;4.57;;;;;;;8.80;58.69;101206.22;5120213;27;20481;-66
2021/04/02 09:03:48;;;;;;;5.90;4.07;;;;;;;8.82;57.85;101207.00;5094059;28;20455;-63
2021/04/02 09:06:14;;;;;;;5.83;3.70;;;;;;;8.73;57.70;101210.28;5083483;28;21206;-65
2021/04/02 09:08:41;;;;;;;6.60;4.10;;;;;;;8.57;57.99;101213.97;5091710;28;20705;-64
2021/04/02 09:11:10;;;;;;;6.53;4.43;;;;;;;8.81;57.87;101199.94;5087922;28;20498;-66
2021/04/02 09:13:37;;;;;;;10.13;5.23;;;;;;;8.75;57.74;101185.22;5093950;28;20667;-64
2021/04/02 09:16:08;;;;;;;6.30;4.83;;;;;;;8.52;58.88;101186.78;5085048;28;20478;-64
2021/04/02 09:18:46;;;;;;;7.57;4.60;;;;;;;9.05;57.69;101190.22;5094722;28;20509;-62
2021/04/02 09:21:12;;;;;;;7.20;4.83;;;;;;;9.03;58.25;101180.63;5096394;28;20482;-64
2021/04/02 09:23:39;;;;;;;5.30;4.33;;;;;;;8.73;58.10;101186.28;5099314;28;20451;-63
2021/04/02 09:26:09;;;;;;;9.67;5.37;;;;;;;8.96;57.56;101182.88;5099685;28;20470;-65
2021/04/02 09:28:36;;;;;;;13.13;4.73;;;;;;;8.50;58.81;101186.03;5099679;28;20487;-63
2021/04/02 09:31:22;;;;;;;6.70;4.70;;;;;;;8.80;58.28;101184.88;5102062;28;20505;-63
2021/04/02 09:33:51;;;;;;;9.03;4.90;;;;;;;9.09;57.66;101195.34;5098599;28;20435;-65
2021/04/02 09:36:19;;;;;;;11.83;5.13;;;;;;;9.29;57.13;101200.13;5099413;28;20488;-65
2021/04/02 09:38:46;;;;;;;9.17;4.63;;;;;;;8.96;57.80;101198.03;5099617;28;20742;-63
2021/04/02 09:41:14;;;;;;;7.33;4.30;;;;;;;8.96;57.83;101195.38;5099894;28;20498;-64
2021/04/02 09:43:45;;;;;;;4.97;4.10;;;;;;;8.91;57.68;101192.16;5102179;28;20458;-64
2021/04/02 09:46:18;;;;;;;8.70;5.00;;;;;;;8.80;57.65;101196.44;5095229;28;20490;-63
2021/04/02 09:48:46;;;;;;;10.80;6.63;;;;;;;9.10;56.95;101194.41;5097851;28;20452;-64
2021/04/02 09:51:13;;;;;;;9.53;5.30;;;;;;;9.07;56.33;101195.47;5099062;28;20485;-63
2021/04/02 09:53:42;;;;;;;8.97;5.27;;;;;;;8.60;56.85;101199.59;5099544;28;20492;-62
2021/04/02 09:56:08;;;;;;;9.27;5.00;;;;;;;8.72;57.18;101201.44;5099302;28;20479;-63
2021/04/02 09:58:35;;;;;;;17.27;5.60;;;;;;;9.17;56.18;101195.69;5101881;28;20455;-62
2021/04/02 10:01:01;;;;;;;8.33;5.10;;;;;;;9.09;56.52;101195.34;5100541;28;20463;-64
2021/04/02 10:03:28;;;;;;;9.40;5.77;;;;;;;8.84;56.82;101187.25;5100014;28;20446;-62
2021/04/02 10:05:54;;;;;;;7.20;4.97;;;;;;;9.03;56.67;101178.81;5101778;28;20494;-63
2021/04/02 10:08:20;;;;;;;10.80;4.50;;;;;;;8.89;56.06;101176.28;5099475;28;20478;-61
2021/04/02 10:10:46;;;;;;;5.70;4.33;;;;;;;9.14;55.20;101175.38;5099678;28;20903;-61
2021/04/02 10:13:13;;;;;;;6.57;4.17;;;;;;;9.00;55.67;101180.84;5096355;28;20828;-61
2021/04/02 10:15:41;;;;;;;8.80;4.90;;;;;;;9.02;55.81;101174.44;5090941;28;20515;-62
2021/04/02 10:18:07;;;;;;;10.23;4.33;;;;;;;9.15;56.12;101179.78;5096150;28;20542;-60
2021/04/02 10:20:33;;;;;;;6.00;4.20;;;;;;;8.86;56.12;101163.16;5098732;28;20493;-61
2021/04/02 10:23:00;;;;;;;7.63;4.40;;;;;;;9.35;55.14;101165.00;5086406;28;20543;-62
2021/04/02 10:25:26;;;;;;;6.53;4.00;;;;;;;9.51;53.63;101161.22;5096332;28;20483;-62
2021/04/02 10:27:52;;;;;;;11.37;4.37;;;;;;;9.98;52.62;101163.09;5100658;28;20486;-61
2021/04/02 10:30:19;;;;;;;4.67;3.37;;;;;;;10.11;50.24;101159.50;5086476;28;21102;-62
2021/04/02 10:32:46;;;;;;;6.33;3.70;;;;;;;10.67;49.27;101158.81;5095771;28;20484;-63
2021/04/02 10:35:14;;;;;;;7.57;3.90;;;;;;;10.86;48.14;101163.59;5100484;27;20463;-63
2021/04/02 10:37:40;;;;;;;3.93;3.40;;;;;;;10.38;49.26;101150.38;5096685;28;20662;-64
2021/04/02 10:40:07;;;;;;;8.07;3.50;;;;;;;10.16;50.17;101151.97;5096772;28;20450;-63
2021/04/02 10:42:34;;;;;;;4.47;3.10;;;;;;;10.01;50.38;101155.81;5093626;28;20474;-63
2021/04/02 10:45:00;;;;;;;3.87;3.03;;;;;;;10.22;48.76;101143.47;5076819;28;20455;-63
2021/04/02 10:47:26;;;;;;;8.77;3.60;;;;;;;10.02;49.17;101161.03;5088404;28;20621;-63
2021/04/02 10:49:53;;;;;;;4.27;2.73;;;;;;;10.19;48.52;101146.41;5086720;28;20452;-64
2021/04/02 10:52:19;;;;;;;4.37;2.60;;;;;;;11.63;44.55;101138.72;5075907;28;20544;-63
2021/04/02 10:54:46;;;;;;;8.90;2.37;;;;;;;11.73;44.54;101138.81;5080797;28;20444;-62
2021/04/02 10:57:13;;;;;;;4.70;2.60;;;;;;;12.62;42.27;101152.84;5082098;28;20474;-62
2021/04/02 10:59:40;;;;;;;6.67;3.60;;;;;;;12.89;41.42;101157.63;5081253;28;20445;-61
2021/04/02 11:02:06;;;;;;;6.03;2.50;;;;;;;12.97;42.30;101152.44;5074165;28;20479;-60
2021/04/02 11:04:32;;;;;;;6.37;3.00;;;;;;;13.51;41.27;101150.41;5082407;28;21252;-62
2021/04/02 11:07:00;;;;;;;5.70;2.63;;;;;;;13.69;39.87;101139.81;5080753;28;20483;-62
2021/04/02 11:09:26;;;;;;;9.80;2.87;;;;;;;13.30;40.55;101147.78;5082009;28;21276;-60
2021/04/02 11:11:55;;;;;;;4.30;2.10;;;;;;;12.68;41.78;101163.03;5079725;28;20476;-61
2021/04/02 11:14:21;;;;;;;9.87;2.73;;;;;;;12.92;41.17;101154.69;5082413;28;20451;-63
2021/04/02 11:16:47;;;;;;;6.80;2.90;;;;;;;11.71;43.98;101152.34;5066134;28;20483;-63
2021/04/02 11:19:13;;;;;;;6.43;2.80;;;;;;;11.47;44.51;101158.72;5078149;28;20521;-64
2021/04/02 11:21:40;;;;;;;10.83;3.20;;;;;;;11.11;46.17;101170.56;5064838;28;20480;-63
2021/04/02 11:24:08;;;;;;;5.90;3.10;;;;;;;11.25;46.13;101170.31;5082837;28;20456;-63
2021/04/02 11:26:34;;;;;;;3.93;2.70;;;;;;;11.00;46.23;101174.06;5090373;28;21003;-63